sensor_id;sensor_type;location;lat;lon;timestamp;temperature;humidity
4910;DHT22;2470;49.868;8.660;2022-07-29T00:02:21;22.50;55.70
4910;DHT22;2470;49.868;8.660;2022-07-29T00:04:46;22.40;55.90
4910;DHT22;2470;49.868;8.660;2022-07-29T00:07:12;22.50;56.00
4910;DHT22;2470;49.868;8.660;2022-07-29T00:09:38;22.50;55.90
4910;DHT22;2470;49.868;8.660;2022-07-29T00:12:03;22.50;55.90
4910;DHT22;2470;49.868;8.660;2022-07-29T00:14:29;22.50;55.90
4910;DHT22;2470;49.868;8.660;2022-07-29T00:16:55;22.50;56.00
4910;DHT22;2470;49.868;8.660;2022-07-29T00:19:20;22.50;56.10
4910;DHT22;2470;49.868;8.660;2022-07-29T00:21:45;22.50;56.10
4910;DHT22;2470;49.868;8.660;2022-07-29T00:24:11;22.50;56.00
4910;DHT22;2470;49.868;8.660;2022-07-29T00:26:37;22.50;56.00
4910;DHT22;2470;49.868;8.660;2022-07-29T00:29:03;22.50;55.80
4910;DHT22;2470;49.868;8.660;2022-07-29T00:31:29;22.50;55.70
4910;DHT22;2470;49.868;8.660;2022-07-29T00:33:55;22.50;56.60
4910;DHT22;2470;49.868;8.660;2022-07-29T00:36:21;22.50;56.80
4910;DHT22;2470;49.868;8.660;2022-07-29T00:38:49;22.50;57.00
4910;DHT22;2470;49.868;8.660;2022-07-29T00:41:15;22.50;57.00
4910;DHT22;2470;49.868;8.660;2022-07-29T00:43:42;22.50;56.60
4910;DHT22;2470;49.868;8.660;2022-07-29T00:46:07;22.60;56.40
4910;DHT22;2470;49.868;8.660;2022-07-29T00:48:33;22.60;56.10
4910;DHT22;2470;49.868;8.660;2022-07-29T00:51:00;22.50;55.90
4910;DHT22;2470;49.868;8.660;2022-07-29T00:53:27;22.50;56.10
4910;DHT22;2470;49.868;8.660;2022-07-29T00:55:54;22.60;56.00
4910;DHT22;2470;49.868;8.660;2022-07-29T00:58:20;22.50;55.90
4910;DHT22;2470;49.868;8.660;2022-07-29T01:00:45;22.50;55.60
4910;DHT22;2470;49.868;8.660;2022-07-29T01:03:11;22.40;55.30
4910;DHT22;2470;49.868;8.660;2022-07-29T01:05:37;22.40;55.20
4910;DHT22;2470;49.868;8.660;2022-07-29T01:08:04;22.50;55.00
4910;DHT22;2470;49.868;8.660;2022-07-29T01:10:30;22.40;54.80
4910;DHT22;2470;49.868;8.660;2022-07-29T01:12:58;22.40;55.00
4910;DHT22;2470;49.868;8.660;2022-07-29T01:15:24;22.40;55.20
4910;DHT22;2470;49.868;8.660;2022-07-29T01:18:16;22.30;55.10
4910;DHT22;2470;49.868;8.660;2022-07-29T01:21:21;22.30;55.10
4910;DHT22;2470;49.868;8.660;2022-07-29T01:29:26;22.10;55.40
4910;DHT22;2470;49.868;8.660;2022-07-29T01:32:01;22.10;55.40
4910;DHT22;2470;49.868;8.660;2022-07-29T01:37:18;22.10;55.80
4910;DHT22;2470;49.868;8.660;2022-07-29T01:39:47;22.00;55.70
4910;DHT22;2470;49.868;8.660;2022-07-29T01:42:34;22.00;55.80
4910;DHT22;2470;49.868;8.660;2022-07-29T01:45:08;22.00;55.80
4910;DHT22;2470;49.868;8.660;2022-07-29T01:47:43;22.00;55.90
4910;DHT22;2470;49.868;8.660;2022-07-29T01:50:12;21.90;56.10
4910;DHT22;2470;49.868;8.660;2022-07-29T01:52:45;21.90;56.40
4910;DHT22;2470;49.868;8.660;2022-07-29T01:55:16;21.80;56.40
4910;DHT22;2470;49.868;8.660;2022-07-29T01:57:45;21.80;56.40
4910;DHT22;2470;49.868;8.660;2022-07-29T02:00:12;21.80;56.40
4910;DHT22;2470;49.868;8.660;2022-07-29T02:02:42;21.80;56.50
4910;DHT22;2470;49.868;8.660;2022-07-29T02:05:10;21.70;56.40
4910;DHT22;2470;49.868;8.660;2022-07-29T02:07:39;21.70;56.40
4910;DHT22;2470;49.868;8.660;2022-07-29T02:10:06;21.70;56.50
4910;DHT22;2470;49.868;8.660;2022-07-29T02:12:33;21.60;56.60
4910;DHT22;2470;49.868;8.660;2022-07-29T02:15:02;21.60;56.70
4910;DHT22;2470;49.868;8.660;2022-07-29T02:17:33;21.60;56.60
4910;DHT22;2470;49.868;8.660;2022-07-29T02:20:00;21.60;56.30
4910;DHT22;2470;49.868;8.660;2022-07-29T02:22:29;21.60;56.40
4910;DHT22;2470;49.868;8.660;2022-07-29T02:24:57;21.60;56.60
4910;DHT22;2470;49.868;8.660;2022-07-29T02:27:23;21.60;56.40
4910;DHT22;2470;49.868;8.660;2022-07-29T02:29:51;21.60;56.50
4910;DHT22;2470;49.868;8.660;2022-07-29T02:32:18;21.60;56.30
4910;DHT22;2470;49.868;8.660;2022-07-29T02:34:45;21.60;56.10
4910;DHT22;2470;49.868;8.660;2022-07-29T02:37:12;21.50;56.00
4910;DHT22;2470;49.868;8.660;2022-07-29T02:39:41;21.50;56.20
4910;DHT22;2470;49.868;8.660;2022-07-29T02:42:11;21.50;55.90
4910;DHT22;2470;49.868;8.660;2022-07-29T02:44:37;21.50;56.10
4910;DHT22;2470;49.868;8.660;2022-07-29T02:47:30;21.50;56.00
4910;DHT22;2470;49.868;8.660;2022-07-29T02:50:26;21.40;56.00
4910;DHT22;2470;49.868;8.660;2022-07-29T02:52:58;21.40;56.10
4910;DHT22;2470;49.868;8.660;2022-07-29T02:55:30;21.40;56.10
4910;DHT22;2470;49.868;8.660;2022-07-29T03:01:21;21.40;56.10
4910;DHT22;2470;49.868;8.660;2022-07-29T03:03:49;21.30;56.30
4910;DHT22;2470;49.868;8.660;2022-07-29T03:06:17;21.30;56.20
4910;DHT22;2470;49.868;8.660;2022-07-29T03:08:44;21.30;56.30
4910;DHT22;2470;49.868;8.660;2022-07-29T03:11:11;21.30;56.30
4910;DHT22;2470;49.868;8.660;2022-07-29T03:13:37;21.20;56.30
4910;DHT22;2470;49.868;8.660;2022-07-29T03:16:04;21.20;56.80
4910;DHT22;2470;49.868;8.660;2022-07-29T03:18:30;21.20;56.50
4910;DHT22;2470;49.868;8.660;2022-07-29T03:20:56;21.20;56.50
4910;DHT22;2470;49.868;8.660;2022-07-29T03:23:23;21.20;56.50
4910;DHT22;2470;49.868;8.660;2022-07-29T03:25:52;21.10;56.60
4910;DHT22;2470;49.868;8.660;2022-07-29T03:28:18;21.10;56.60
4910;DHT22;2470;49.868;8.660;2022-07-29T03:30:44;21.10;56.80
4910;DHT22;2470;49.868;8.660;2022-07-29T03:33:09;21.00;56.70
4910;DHT22;2470;49.868;8.660;2022-07-29T03:35:35;21.00;57.00
4910;DHT22;2470;49.868;8.660;2022-07-29T03:38:00;21.00;56.90
4910;DHT22;2470;49.868;8.660;2022-07-29T03:40:48;21.00;57.00
4910;DHT22;2470;49.868;8.660;2022-07-29T03:43:15;21.00;57.00
4910;DHT22;2470;49.868;8.660;2022-07-29T03:45:45;20.90;56.90
4910;DHT22;2470;49.868;8.660;2022-07-29T03:48:15;20.90;57.10
4910;DHT22;2470;49.868;8.660;2022-07-29T03:50:42;20.90;57.30
4910;DHT22;2470;49.868;8.660;2022-07-29T03:53:08;20.90;57.30
4910;DHT22;2470;49.868;8.660;2022-07-29T03:55:42;20.90;57.10
4910;DHT22;2470;49.868;8.660;2022-07-29T03:58:09;20.90;57.30
4910;DHT22;2470;49.868;8.660;2022-07-29T04:00:36;20.80;57.30
4910;DHT22;2470;49.868;8.660;2022-07-29T04:03:03;20.80;57.50
4910;DHT22;2470;49.868;8.660;2022-07-29T04:05:29;20.80;57.50
4910;DHT22;2470;49.868;8.660;2022-07-29T04:07:55;20.80;57.60
4910;DHT22;2470;49.868;8.660;2022-07-29T04:10:20;20.90;57.70
4910;DHT22;2470;49.868;8.660;2022-07-29T04:12:46;20.90;57.50
4910;DHT22;2470;49.868;8.660;2022-07-29T04:15:11;20.90;57.50
4910;DHT22;2470;49.868;8.660;2022-07-29T04:17:37;20.90;57.30
4910;DHT22;2470;49.868;8.660;2022-07-29T04:20:04;20.90;57.30
4910;DHT22;2470;49.868;8.660;2022-07-29T04:22:29;20.90;57.30
4910;DHT22;2470;49.868;8.660;2022-07-29T04:24:55;20.90;57.60
4910;DHT22;2470;49.868;8.660;2022-07-29T04:27:20;20.90;57.50
4910;DHT22;2470;49.868;8.660;2022-07-29T04:29:46;21.00;57.70
4910;DHT22;2470;49.868;8.660;2022-07-29T04:32:11;20.90;57.40
4910;DHT22;2470;49.868;8.660;2022-07-29T04:34:37;21.00;57.50
4910;DHT22;2470;49.868;8.660;2022-07-29T04:37:02;21.00;57.80
4910;DHT22;2470;49.868;8.660;2022-07-29T04:39:28;21.00;57.90
4910;DHT22;2470;49.868;8.660;2022-07-29T04:41:54;21.00;57.60
4910;DHT22;2470;49.868;8.660;2022-07-29T04:44:19;21.10;57.60
4910;DHT22;2470;49.868;8.660;2022-07-29T04:46:45;21.10;57.40
4910;DHT22;2470;49.868;8.660;2022-07-29T04:49:10;21.10;57.20
4910;DHT22;2470;49.868;8.660;2022-07-29T04:51:36;21.20;57.20
4910;DHT22;2470;49.868;8.660;2022-07-29T04:54:01;21.20;57.10
4910;DHT22;2470;49.868;8.660;2022-07-29T04:56:27;21.20;57.10
4910;DHT22;2470;49.868;8.660;2022-07-29T04:58:53;21.20;57.10
4910;DHT22;2470;49.868;8.660;2022-07-29T05:01:18;21.30;57.20
4910;DHT22;2470;49.868;8.660;2022-07-29T05:03:44;21.30;57.10
4910;DHT22;2470;49.868;8.660;2022-07-29T05:06:10;21.30;57.20
4910;DHT22;2470;49.868;8.660;2022-07-29T05:08:36;21.30;57.10
4910;DHT22;2470;49.868;8.660;2022-07-29T05:11:02;21.40;57.10
4910;DHT22;2470;49.868;8.660;2022-07-29T05:13:27;21.40;57.10
4910;DHT22;2470;49.868;8.660;2022-07-29T05:15:53;21.40;57.00
4910;DHT22;2470;49.868;8.660;2022-07-29T05:18:18;21.50;57.00
4910;DHT22;2470;49.868;8.660;2022-07-29T05:20:44;21.50;57.10
4910;DHT22;2470;49.868;8.660;2022-07-29T05:23:09;21.50;57.10
4910;DHT22;2470;49.868;8.660;2022-07-29T05:25:37;21.50;57.10
4910;DHT22;2470;49.868;8.660;2022-07-29T05:28:03;21.60;57.00
4910;DHT22;2470;49.868;8.660;2022-07-29T05:30:29;21.70;57.00
4910;DHT22;2470;49.868;8.660;2022-07-29T05:32:54;21.70;57.00
4910;DHT22;2470;49.868;8.660;2022-07-29T05:35:20;21.70;57.00
4910;DHT22;2470;49.868;8.660;2022-07-29T05:37:46;21.70;56.90
4910;DHT22;2470;49.868;8.660;2022-07-29T05:40:11;21.80;57.00
4910;DHT22;2470;49.868;8.660;2022-07-29T05:42:37;21.80;57.00
4910;DHT22;2470;49.868;8.660;2022-07-29T05:45:02;21.80;57.00
4910;DHT22;2470;49.868;8.660;2022-07-29T05:47:28;21.90;57.30
4910;DHT22;2470;49.868;8.660;2022-07-29T05:49:53;22.00;57.30
4910;DHT22;2470;49.868;8.660;2022-07-29T05:52:20;22.00;57.20
4910;DHT22;2470;49.868;8.660;2022-07-29T05:54:46;21.90;56.90
4910;DHT22;2470;49.868;8.660;2022-07-29T05:57:16;21.90;57.00
4910;DHT22;2470;49.868;8.660;2022-07-29T05:59:42;21.80;57.10
4910;DHT22;2470;49.868;8.660;2022-07-29T06:02:07;21.70;57.30
4910;DHT22;2470;49.868;8.660;2022-07-29T06:04:33;21.70;57.50
4910;DHT22;2470;49.868;8.660;2022-07-29T06:06:58;21.60;57.50
4910;DHT22;2470;49.868;8.660;2022-07-29T06:09:24;21.60;57.80
4910;DHT22;2470;49.868;8.660;2022-07-29T06:11:49;21.60;57.80
4910;DHT22;2470;49.868;8.660;2022-07-29T06:14:15;21.70;57.70
4910;DHT22;2470;49.868;8.660;2022-07-29T06:16:41;21.90;57.70
4910;DHT22;2470;49.868;8.660;2022-07-29T06:19:06;22.00;57.50
4910;DHT22;2470;49.868;8.660;2022-07-29T06:21:32;22.10;57.30
4910;DHT22;2470;49.868;8.660;2022-07-29T06:23:59;22.20;57.20
4910;DHT22;2470;49.868;8.660;2022-07-29T06:26:24;22.30;56.80
4910;DHT22;2470;49.868;8.660;2022-07-29T06:28:50;22.30;56.60
4910;DHT22;2470;49.868;8.660;2022-07-29T06:31:15;22.40;56.50
4910;DHT22;2470;49.868;8.660;2022-07-29T06:33:41;22.50;56.00
4910;DHT22;2470;49.868;8.660;2022-07-29T06:36:07;22.50;55.90
4910;DHT22;2470;49.868;8.660;2022-07-29T06:38:33;22.60;55.90
4910;DHT22;2470;49.868;8.660;2022-07-29T06:40:59;22.70;55.50
4910;DHT22;2470;49.868;8.660;2022-07-29T06:43:41;22.80;55.20
4910;DHT22;2470;49.868;8.660;2022-07-29T06:46:08;22.80;54.90
4910;DHT22;2470;49.868;8.660;2022-07-29T06:48:35;22.90;55.20
4910;DHT22;2470;49.868;8.660;2022-07-29T06:51:04;23.00;55.10
4910;DHT22;2470;49.868;8.660;2022-07-29T06:53:31;23.10;55.00
4910;DHT22;2470;49.868;8.660;2022-07-29T06:55:58;23.10;55.10
4910;DHT22;2470;49.868;8.660;2022-07-29T06:58:24;23.20;55.00
4910;DHT22;2470;49.868;8.660;2022-07-29T07:00:50;23.30;54.70
4910;DHT22;2470;49.868;8.660;2022-07-29T07:03:17;23.30;54.70
4910;DHT22;2470;49.868;8.660;2022-07-29T07:05:43;23.30;54.40
4910;DHT22;2470;49.868;8.660;2022-07-29T07:08:09;23.30;54.10
4910;DHT22;2470;49.868;8.660;2022-07-29T07:10:35;23.30;54.30
4910;DHT22;2470;49.868;8.660;2022-07-29T07:13:01;23.40;54.00
4910;DHT22;2470;49.868;8.660;2022-07-29T07:15:27;23.40;54.00
4910;DHT22;2470;49.868;8.660;2022-07-29T07:17:53;23.40;54.70
4910;DHT22;2470;49.868;8.660;2022-07-29T07:20:18;23.40;54.80
4910;DHT22;2470;49.868;8.660;2022-07-29T07:22:44;23.40;54.80
4910;DHT22;2470;49.868;8.660;2022-07-29T07:25:10;23.50;54.70
4910;DHT22;2470;49.868;8.660;2022-07-29T07:27:37;23.60;54.70
4910;DHT22;2470;49.868;8.660;2022-07-29T07:30:04;23.70;54.90
4910;DHT22;2470;49.868;8.660;2022-07-29T07:32:31;23.80;54.90
4910;DHT22;2470;49.868;8.660;2022-07-29T07:34:57;23.90;54.60
4910;DHT22;2470;49.868;8.660;2022-07-29T07:37:24;24.00;54.30
4910;DHT22;2470;49.868;8.660;2022-07-29T07:39:50;24.00;54.40
4910;DHT22;2470;49.868;8.660;2022-07-29T07:42:16;24.10;54.60
4910;DHT22;2470;49.868;8.660;2022-07-29T07:44:42;24.20;54.60
4910;DHT22;2470;49.868;8.660;2022-07-29T07:47:07;24.30;54.80
4910;DHT22;2470;49.868;8.660;2022-07-29T07:49:33;24.30;54.80
4910;DHT22;2470;49.868;8.660;2022-07-29T07:51:59;24.40;55.00
4910;DHT22;2470;49.868;8.660;2022-07-29T07:54:24;24.40;56.30
4910;DHT22;2470;49.868;8.660;2022-07-29T07:56:50;24.40;56.50
4910;DHT22;2470;49.868;8.660;2022-07-29T07:59:16;24.50;56.40
4910;DHT22;2470;49.868;8.660;2022-07-29T08:01:42;24.50;56.50
4910;DHT22;2470;49.868;8.660;2022-07-29T08:04:08;24.60;56.60
4910;DHT22;2470;49.868;8.660;2022-07-29T08:06:34;24.80;56.80
4910;DHT22;2470;49.868;8.660;2022-07-29T08:09:02;24.80;56.60
4910;DHT22;2470;49.868;8.660;2022-07-29T08:11:27;24.80;56.70
4910;DHT22;2470;49.868;8.660;2022-07-29T08:13:54;24.90;56.90
4910;DHT22;2470;49.868;8.660;2022-07-29T08:16:19;25.00;57.10
4910;DHT22;2470;49.868;8.660;2022-07-29T08:18:46;25.00;57.20
4910;DHT22;2470;49.868;8.660;2022-07-29T08:21:12;25.10;57.70
4910;DHT22;2470;49.868;8.660;2022-07-29T08:23:38;25.10;57.90
4910;DHT22;2470;49.868;8.660;2022-07-29T08:26:08;25.00;57.90
4910;DHT22;2470;49.868;8.660;2022-07-29T08:28:43;24.90;58.20
4910;DHT22;2470;49.868;8.660;2022-07-29T08:31:16;25.00;58.70
4910;DHT22;2470;49.868;8.660;2022-07-29T08:33:42;25.10;58.80
4910;DHT22;2470;49.868;8.660;2022-07-29T08:36:08;25.30;59.00
4910;DHT22;2470;49.868;8.660;2022-07-29T08:38:34;25.50;58.50
4910;DHT22;2470;49.868;8.660;2022-07-29T08:41:03;25.60;59.10
4910;DHT22;2470;49.868;8.660;2022-07-29T08:43:29;25.70;58.70
4910;DHT22;2470;49.868;8.660;2022-07-29T08:45:54;25.60;58.80
4910;DHT22;2470;49.868;8.660;2022-07-29T08:48:22;25.60;59.30
4910;DHT22;2470;49.868;8.660;2022-07-29T08:50:53;25.60;59.60
4910;DHT22;2470;49.868;8.660;2022-07-29T08:53:19;25.70;59.40
4910;DHT22;2470;49.868;8.660;2022-07-29T08:55:48;25.70;59.40
4910;DHT22;2470;49.868;8.660;2022-07-29T08:58:14;25.70;59.30
4910;DHT22;2470;49.868;8.660;2022-07-29T09:00:46;25.80;59.00
4910;DHT22;2470;49.868;8.660;2022-07-29T09:03:17;25.90;58.80
4910;DHT22;2470;49.868;8.660;2022-07-29T09:05:45;25.90;58.80
4910;DHT22;2470;49.868;8.660;2022-07-29T09:08:11;25.80;59.00
4910;DHT22;2470;49.868;8.660;2022-07-29T09:10:36;25.70;59.50
4910;DHT22;2470;49.868;8.660;2022-07-29T09:13:02;25.70;59.90
4910;DHT22;2470;49.868;8.660;2022-07-29T09:15:28;25.80;59.80
4910;DHT22;2470;49.868;8.660;2022-07-29T09:17:53;25.90;59.40
4910;DHT22;2470;49.868;8.660;2022-07-29T09:20:21;25.90;59.70
4910;DHT22;2470;49.868;8.660;2022-07-29T09:22:50;25.90;59.70
4910;DHT22;2470;49.868;8.660;2022-07-29T09:25:38;25.90;59.80
4910;DHT22;2470;49.868;8.660;2022-07-29T09:30:35;25.90;60.00
4910;DHT22;2470;49.868;8.660;2022-07-29T09:33:02;25.80;60.50
4910;DHT22;2470;49.868;8.660;2022-07-29T09:35:31;25.80;61.50
4910;DHT22;2470;49.868;8.660;2022-07-29T09:37:57;25.80;60.70
4910;DHT22;2470;49.868;8.660;2022-07-29T09:40:25;25.90;61.40
4910;DHT22;2470;49.868;8.660;2022-07-29T09:42:52;25.90;60.70
4910;DHT22;2470;49.868;8.660;2022-07-29T09:45:33;25.90;60.90
4910;DHT22;2470;49.868;8.660;2022-07-29T09:48:12;26.00;60.70
4910;DHT22;2470;49.868;8.660;2022-07-29T09:50:39;26.10;60.60
4910;DHT22;2470;49.868;8.660;2022-07-29T09:53:05;26.20;60.60
4910;DHT22;2470;49.868;8.660;2022-07-29T09:55:31;26.20;60.50
4910;DHT22;2470;49.868;8.660;2022-07-29T09:58:17;26.20;60.20
4910;DHT22;2470;49.868;8.660;2022-07-29T10:00:44;26.30;60.40
4910;DHT22;2470;49.868;8.660;2022-07-29T10:03:15;26.40;60.60
4910;DHT22;2470;49.868;8.660;2022-07-29T10:05:41;26.50;60.30
4910;DHT22;2470;49.868;8.660;2022-07-29T10:08:08;26.60;59.50
4910;DHT22;2470;49.868;8.660;2022-07-29T10:10:39;26.70;59.50
4910;DHT22;2470;49.868;8.660;2022-07-29T10:13:10;26.80;59.40
4910;DHT22;2470;49.868;8.660;2022-07-29T10:15:38;27.00;58.90
4910;DHT22;2470;49.868;8.660;2022-07-29T10:18:07;27.10;58.10
4910;DHT22;2470;49.868;8.660;2022-07-29T10:20:33;27.00;58.70
4910;DHT22;2470;49.868;8.660;2022-07-29T10:22:58;27.00;59.10
4910;DHT22;2470;49.868;8.660;2022-07-29T10:25:25;27.10;58.60
4910;DHT22;2470;49.868;8.660;2022-07-29T10:27:51;27.10;58.60
4910;DHT22;2470;49.868;8.660;2022-07-29T10:30:18;27.00;58.80
4910;DHT22;2470;49.868;8.660;2022-07-29T10:33:14;27.00;59.10
4910;DHT22;2470;49.868;8.660;2022-07-29T10:35:56;27.10;58.70
4910;DHT22;2470;49.868;8.660;2022-07-29T10:41:05;27.20;59.00
4910;DHT22;2470;49.868;8.660;2022-07-29T10:46:24;27.40;57.70
4910;DHT22;2470;49.868;8.660;2022-07-29T10:49:10;27.30;58.10
4910;DHT22;2470;49.868;8.660;2022-07-29T10:51:56;27.20;58.30
4910;DHT22;2470;49.868;8.660;2022-07-29T10:54:42;27.20;58.40
4910;DHT22;2470;49.868;8.660;2022-07-29T10:57:29;27.50;57.90
4910;DHT22;2470;49.868;8.660;2022-07-29T11:05:04;27.90;56.90
4910;DHT22;2470;49.868;8.660;2022-07-29T11:07:30;27.90;57.00
4910;DHT22;2470;49.868;8.660;2022-07-29T11:15:22;28.10;57.10
4910;DHT22;2470;49.868;8.660;2022-07-29T11:20:45;28.50;55.80
4910;DHT22;2470;49.868;8.660;2022-07-29T11:23:29;28.80;55.30
4910;DHT22;2470;49.868;8.660;2022-07-29T11:31:43;28.80;54.50
4910;DHT22;2470;49.868;8.660;2022-07-29T11:34:17;28.80;55.10
4910;DHT22;2470;49.868;8.660;2022-07-29T11:37:14;29.00;54.80
4910;DHT22;2470;49.868;8.660;2022-07-29T11:39:46;29.30;54.80
4910;DHT22;2470;49.868;8.660;2022-07-29T11:47:28;29.40;54.30
4910;DHT22;2470;49.868;8.660;2022-07-29T11:49:55;29.40;53.70
4910;DHT22;2470;49.868;8.660;2022-07-29T11:52:22;29.30;54.60
4910;DHT22;2470;49.868;8.660;2022-07-29T11:54:50;29.30;53.80
4910;DHT22;2470;49.868;8.660;2022-07-29T11:57:20;29.20;54.80
4910;DHT22;2470;49.868;8.660;2022-07-29T11:59:47;28.90;54.70
4910;DHT22;2470;49.868;8.660;2022-07-29T12:02:13;28.90;54.70
4910;DHT22;2470;49.868;8.660;2022-07-29T12:04:54;29.00;54.90
4910;DHT22;2470;49.868;8.660;2022-07-29T12:07:27;29.20;55.60
4910;DHT22;2470;49.868;8.660;2022-07-29T12:09:53;29.40;55.40
4910;DHT22;2470;49.868;8.660;2022-07-29T12:12:20;29.50;55.50
4910;DHT22;2470;49.868;8.660;2022-07-29T12:14:46;29.60;54.00
4910;DHT22;2470;49.868;8.660;2022-07-29T12:17:29;29.70;55.00
4910;DHT22;2470;49.868;8.660;2022-07-29T12:19:56;29.70;54.50
4910;DHT22;2470;49.868;8.660;2022-07-29T12:22:29;29.70;54.30
4910;DHT22;2470;49.868;8.660;2022-07-29T12:24:55;29.70;53.70
4910;DHT22;2470;49.868;8.660;2022-07-29T12:27:26;29.70;53.60
4910;DHT22;2470;49.868;8.660;2022-07-29T12:29:56;30.00;53.00
4910;DHT22;2470;49.868;8.660;2022-07-29T12:32:22;30.20;53.10
4910;DHT22;2470;49.868;8.660;2022-07-29T12:34:47;30.20;53.10
4910;DHT22;2470;49.868;8.660;2022-07-29T12:37:13;30.30;53.20
4910;DHT22;2470;49.868;8.660;2022-07-29T12:39:39;30.40;53.40
4910;DHT22;2470;49.868;8.660;2022-07-29T12:42:12;30.50;52.30
4910;DHT22;2470;49.868;8.660;2022-07-29T12:44:48;30.20;51.90
4910;DHT22;2470;49.868;8.660;2022-07-29T12:47:15;30.10;52.90
4910;DHT22;2470;49.868;8.660;2022-07-29T12:49:41;30.60;52.80
4910;DHT22;2470;49.868;8.660;2022-07-29T12:52:26;31.60;50.90
4910;DHT22;2470;49.868;8.660;2022-07-29T12:54:52;33.90;48.50
4910;DHT22;2470;49.868;8.660;2022-07-29T12:57:18;36.00;45.70
4910;DHT22;2470;49.868;8.660;2022-07-29T12:59:43;37.30;44.20
4910;DHT22;2470;49.868;8.660;2022-07-29T13:02:21;38.50;42.80
4910;DHT22;2470;49.868;8.660;2022-07-29T13:04:55;40.10;40.20
4910;DHT22;2470;49.868;8.660;2022-07-29T13:07:26;41.80;39.10
4910;DHT22;2470;49.868;8.660;2022-07-29T13:09:52;43.00;37.00
4910;DHT22;2470;49.868;8.660;2022-07-29T13:12:18;44.00;35.90
4910;DHT22;2470;49.868;8.660;2022-07-29T13:14:45;45.10;34.30
4910;DHT22;2470;49.868;8.660;2022-07-29T13:17:14;46.00;33.10
4910;DHT22;2470;49.868;8.660;2022-07-29T13:19:41;45.90;32.90
4910;DHT22;2470;49.868;8.660;2022-07-29T13:22:14;46.20;32.30
4910;DHT22;2470;49.868;8.660;2022-07-29T13:24:51;46.80;31.10
4910;DHT22;2470;49.868;8.660;2022-07-29T13:27:51;47.10;30.90
4910;DHT22;2470;49.868;8.660;2022-07-29T13:30:11;47.20;30.80
4910;DHT22;2470;49.868;8.660;2022-07-29T13:32:36;47.10;29.60
4910;DHT22;2470;49.868;8.660;2022-07-29T13:35:06;47.40;29.50
4910;DHT22;2470;49.868;8.660;2022-07-29T13:37:33;47.70;28.80
4910;DHT22;2470;49.868;8.660;2022-07-29T13:40:00;47.70;29.10
4910;DHT22;2470;49.868;8.660;2022-07-29T13:42:28;48.10;29.10
4910;DHT22;2470;49.868;8.660;2022-07-29T13:44:53;48.60;28.90
4910;DHT22;2470;49.868;8.660;2022-07-29T13:47:20;47.70;28.20
4910;DHT22;2470;49.868;8.660;2022-07-29T13:49:47;45.30;29.20
4910;DHT22;2470;49.868;8.660;2022-07-29T13:52:12;44.40;30.30
4910;DHT22;2470;49.868;8.660;2022-07-29T13:54:38;44.10;29.90
4910;DHT22;2470;49.868;8.660;2022-07-29T13:57:04;42.50;30.80
4910;DHT22;2470;49.868;8.660;2022-07-29T13:59:30;40.50;32.40
4910;DHT22;2470;49.868;8.660;2022-07-29T14:01:55;38.50;35.00
4910;DHT22;2470;49.868;8.660;2022-07-29T14:04:21;36.80;37.20
4910;DHT22;2470;49.868;8.660;2022-07-29T14:06:48;35.50;39.10
4910;DHT22;2470;49.868;8.660;2022-07-29T14:09:14;34.50;40.40
4910;DHT22;2470;49.868;8.660;2022-07-29T14:11:39;33.80;41.50
4910;DHT22;2470;49.868;8.660;2022-07-29T14:14:05;33.10;41.80
4910;DHT22;2470;49.868;8.660;2022-07-29T14:16:31;32.50;42.40
4910;DHT22;2470;49.868;8.660;2022-07-29T14:18:56;32.10;43.00
4910;DHT22;2470;49.868;8.660;2022-07-29T14:21:22;31.90;43.80
4910;DHT22;2470;49.868;8.660;2022-07-29T14:23:47;31.60;44.40
4910;DHT22;2470;49.868;8.660;2022-07-29T14:26:13;31.40;44.50
4910;DHT22;2470;49.868;8.660;2022-07-29T14:28:39;31.20;44.80
4910;DHT22;2470;49.868;8.660;2022-07-29T14:31:04;31.00;45.30
4910;DHT22;2470;49.868;8.660;2022-07-29T14:33:30;30.80;46.20
4910;DHT22;2470;49.868;8.660;2022-07-29T14:35:55;30.60;46.70
4910;DHT22;2470;49.868;8.660;2022-07-29T14:38:21;30.40;47.10
4910;DHT22;2470;49.868;8.660;2022-07-29T14:40:46;30.30;47.50
4910;DHT22;2470;49.868;8.660;2022-07-29T14:43:13;30.30;47.00
4910;DHT22;2470;49.868;8.660;2022-07-29T14:45:39;30.20;47.00
4910;DHT22;2470;49.868;8.660;2022-07-29T14:48:05;30.20;47.50
4910;DHT22;2470;49.868;8.660;2022-07-29T14:50:30;30.20;47.70
4910;DHT22;2470;49.868;8.660;2022-07-29T14:52:56;30.10;48.10
4910;DHT22;2470;49.868;8.660;2022-07-29T14:55:22;30.00;48.40
4910;DHT22;2470;49.868;8.660;2022-07-29T14:57:48;29.90;48.70
4910;DHT22;2470;49.868;8.660;2022-07-29T15:00:15;30.00;48.50
4910;DHT22;2470;49.868;8.660;2022-07-29T15:02:41;30.00;48.30
4910;DHT22;2470;49.868;8.660;2022-07-29T15:05:07;30.10;48.40
4910;DHT22;2470;49.868;8.660;2022-07-29T15:07:33;30.10;48.50
4910;DHT22;2470;49.868;8.660;2022-07-29T15:09:58;30.20;48.90
4910;DHT22;2470;49.868;8.660;2022-07-29T15:12:24;30.30;49.00
4910;DHT22;2470;49.868;8.660;2022-07-29T15:14:49;30.40;48.50
4910;DHT22;2470;49.868;8.660;2022-07-29T15:17:15;30.50;48.00
4910;DHT22;2470;49.868;8.660;2022-07-29T15:19:40;30.70;47.90
4910;DHT22;2470;49.868;8.660;2022-07-29T15:22:06;30.90;47.70
4910;DHT22;2470;49.868;8.660;2022-07-29T15:24:31;31.10;46.50
4910;DHT22;2470;49.868;8.660;2022-07-29T15:26:57;31.30;46.70
4910;DHT22;2470;49.868;8.660;2022-07-29T15:29:22;31.70;46.40
4910;DHT22;2470;49.868;8.660;2022-07-29T15:31:48;31.70;46.80
4910;DHT22;2470;49.868;8.660;2022-07-29T15:34:14;31.60;47.40
4910;DHT22;2470;49.868;8.660;2022-07-29T15:36:40;31.60;47.30
4910;DHT22;2470;49.868;8.660;2022-07-29T15:39:05;31.50;47.50
4910;DHT22;2470;49.868;8.660;2022-07-29T15:41:31;31.40;47.30
4910;DHT22;2470;49.868;8.660;2022-07-29T15:43:56;31.30;47.70
4910;DHT22;2470;49.868;8.660;2022-07-29T15:46:22;31.30;47.70
4910;DHT22;2470;49.868;8.660;2022-07-29T15:49:08;31.20;47.50
4910;DHT22;2470;49.868;8.660;2022-07-29T15:51:34;31.20;47.80
4910;DHT22;2470;49.868;8.660;2022-07-29T15:54:04;31.20;47.70
4910;DHT22;2470;49.868;8.660;2022-07-29T15:56:30;31.10;47.80
4910;DHT22;2470;49.868;8.660;2022-07-29T15:58:56;31.10;48.10
4910;DHT22;2470;49.868;8.660;2022-07-29T16:01:22;31.10;48.30
4910;DHT22;2470;49.868;8.660;2022-07-29T16:03:49;31.10;48.00
4910;DHT22;2470;49.868;8.660;2022-07-29T16:06:15;31.10;48.00
4910;DHT22;2470;49.868;8.660;2022-07-29T16:08:40;31.10;47.80
4910;DHT22;2470;49.868;8.660;2022-07-29T16:11:06;31.10;47.70
4910;DHT22;2470;49.868;8.660;2022-07-29T16:13:31;31.10;47.90
4910;DHT22;2470;49.868;8.660;2022-07-29T16:15:57;30.90;48.00
4910;DHT22;2470;49.868;8.660;2022-07-29T16:18:22;30.70;50.10
4910;DHT22;2470;49.868;8.660;2022-07-29T16:20:48;30.50;51.70
4910;DHT22;2470;49.868;8.660;2022-07-29T16:23:13;30.20;52.20
4910;DHT22;2470;49.868;8.660;2022-07-29T16:25:40;29.90;53.00
4910;DHT22;2470;49.868;8.660;2022-07-29T16:28:06;29.60;53.80
4910;DHT22;2470;49.868;8.660;2022-07-29T16:30:33;29.30;54.60
4910;DHT22;2470;49.868;8.660;2022-07-29T16:32:58;29.00;55.10
4910;DHT22;2470;49.868;8.660;2022-07-29T16:35:24;28.80;56.20
4910;DHT22;2470;49.868;8.660;2022-07-29T16:37:49;28.70;56.20
4910;DHT22;2470;49.868;8.660;2022-07-29T16:40:15;28.50;56.50
4910;DHT22;2470;49.868;8.660;2022-07-29T16:42:41;28.30;56.10
4910;DHT22;2470;49.868;8.660;2022-07-29T16:45:07;28.20;56.20
4910;DHT22;2470;49.868;8.660;2022-07-29T16:47:32;28.10;56.60
4910;DHT22;2470;49.868;8.660;2022-07-29T16:49:58;27.90;56.80
4910;DHT22;2470;49.868;8.660;2022-07-29T16:52:24;27.80;57.20